Time,TemperatureF,DewpointF,PressureIn,WindDirection,WindDirectionDegrees,WindSpeedMPH,WindSpeedGustMPH,Humidity,HourlyPrecipIn,Conditions,Clouds,dailyrainin,SoftwareType,DateUTC
2013-09-30 00:02:00,59.2,57.7,30.00,NNE,22,0.0,0.0,95,0.00,,,0.00,WUHU21623XXSP,2013-09-30 05:02:00,
2013-09-30 00:07:00,58.8,57.4,30.00,NNE,22,0.0,0.0,95,0.00,,,0.00,WUHU21623XXSP,2013-09-30 05:07:00,
2013-09-30 00:12:00,58.8,57.4,30.00,NNE,22,0.0,0.0,95,0.00,,,0.00,WUHU21623XXSP,2013-09-30 05:12:00,
2013-09-30 00:17:00,58.8,57.4,30.00,NNE,22,0.0,0.0,95,0.00,,,0.00,WUHU21623XXSP,2013-09-30 05:17:00,
2013-09-30 00:22:00,58.8,57.4,30.00,NNE,22,0.0,0.0,95,0.00,,,0.00,WUHU21623XXSP,2013-09-30 05:22:00,
2013-09-30 00:27:00,58.8,57.4,29.99,NNE,22,0.0,0.0,95,0.00,,,0.00,WUHU21623XXSP,2013-09-30 05:27:00,
2013-09-30 00:32:00,58.8,57.4,29.99,NNE,22,0.0,0.0,95,0.00,,,0.00,WUHU21623XXSP,2013-09-30 05:32:00,
2013-09-30 00:37:00,58.8,57.4,30.00,NNE,22,0.0,0.0,95,0.00,,,0.00,WUHU21623XXSP,2013-09-30 05:37:00,
2013-09-30 00:42:00,58.8,57.4,30.00,NNE,22,0.0,0.0,95,0.00,,,0.00,WUHU21623XXSP,2013-09-30 05:42:00,
2013-09-30 00:47:00,58.8,57.4,30.00,NNE,22,0.0,0.0,95,0.00,,,0.00,WUHU21623XXSP,2013-09-30 05:47:00,
2013-09-30 00:52:00,58.8,57.4,30.00,NNE,22,0.0,0.0,95,0.00,,,0.00,WUHU21623XXSP,2013-09-30 05:52:00,
2013-09-30 00:57:00,58.6,57.2,30.00,NNE,22,0.0,0.0,95,0.00,,,0.00,WUHU21623XXSP,2013-09-30 05:57:00,
2013-09-30 01:02:00,58.5,57.0,30.00,NNE,22,0.0,0.0,95,0.00,,,0.00,WUHU21623XXSP,2013-09-30 06:02:00,
2013-09-30 01:15:00,58.1,56.7,30.00,NNE,22,0.0,0.0,95,0.00,,,0.00,WUHU21623XXSP,2013-09-30 06:15:00,
2013-09-30 01:20:00,58.1,56.7,30.00,NNE,22,0.0,0.0,95,0.00,,,0.00,WUHU21623XXSP,2013-09-30 06:20:00,
2013-09-30 01:25:00,58.3,56.8,29.99,NNE,22,0.0,0.0,95,0.00,,,0.00,WUHU21623XXSP,2013-09-30 06:25:00,
2013-09-30 01:30:00,58.3,56.8,30.00,NNE,22,0.0,0.0,95,0.00,,,0.00,WUHU21623XXSP,2013-09-30 06:30:00,
2013-09-30 01:35:00,58.3,56.8,29.99,NNE,22,0.0,0.0,95,0.00,,,0.00,WUHU21623XXSP,2013-09-30 06:35:00,
2013-09-30 01:40:00,58.1,56.7,29.99,NNE,22,0.0,0.0,95,0.00,,,0.00,WUHU21623XXSP,2013-09-30 06:40:00,
2013-09-30 01:45:00,58.1,56.7,29.99,NNE,22,0.0,0.0,95,0.00,,,0.00,WUHU21623XXSP,2013-09-30 06:45:00,
2013-09-30 01:50:00,57.9,56.5,29.99,NNE,22,0.0,0.0,95,0.00,,,0.00,WUHU21623XXSP,2013-09-30 06:50:00,
2013-09-30 01:55:00,57.9,56.5,29.99,NNE,22,0.0,0.0,95,0.00,,,0.00,WUHU21623XXSP,2013-09-30 06:55:00,
2013-09-30 02:00:00,57.9,56.5,29.98,NNE,22,0.0,0.0,95,0.00,,,0.00,WUHU21623XXSP,2013-09-30 07:00:00,
2013-09-30 02:05:00,57.9,56.5,29.98,NNE,22,0.0,0.0,95,0.00,,,0.00,WUHU21623XXSP,2013-09-30 07:05:00,
2013-09-30 02:11:00,57.7,56.3,29.98,NNE,22,0.0,0.0,95,0.00,,,0.00,WUHU21623XXSP,2013-09-30 07:11:00,
2013-09-30 02:16:00,57.6,56.1,29.98,NNE,22,0.0,0.0,95,0.00,,,0.00,WUHU21623XXSP,2013-09-30 07:16:00,
2013-09-30 02:21:00,57.6,56.1,29.99,NNE,22,0.0,0.0,95,0.00,,,0.00,WUHU21623XXSP,2013-09-30 07:21:00,
2013-09-30 02:26:00,57.7,56.3,29.98,NNE,22,0.0,0.0,95,0.00,,,0.00,WUHU21623XXSP,2013-09-30 07:26:00,
2013-09-30 02:31:00,57.6,56.1,29.99,NNE,22,0.0,0.0,95,0.00,,,0.00,WUHU21623XXSP,2013-09-30 07:31:00,
2013-09-30 02:36:00,57.6,56.1,29.98,NNE,22,0.0,0.0,95,0.00,,,0.00,WUHU21623XXSP,2013-09-30 07:36:00,
2013-09-30 02:41:00,57.4,56.2,29.99,NNE,22,0.0,0.0,96,0.00,,,0.00,WUHU21623XXSP,2013-09-30 07:41:00,
2013-09-30 02:46:00,57.4,56.2,29.98,NNE,22,0.0,0.0,96,0.00,,,0.00,WUHU21623XXSP,2013-09-30 07:46:00,
2013-09-30 02:51:00,57.4,56.2,29.98,NNE,22,0.0,0.0,96,0.00,,,0.00,WUHU21623XXSP,2013-09-30 07:51:00,
2013-09-30 02:56:00,57.0,55.9,29.98,NNE,22,0.0,0.0,96,0.00,,,0.00,WUHU21623XXSP,2013-09-30 07:56:00,
2013-09-30 03:01:00,57.0,55.9,29.98,NNE,22,0.0,0.0,96,0.00,,,0.00,WUHU21623XXSP,2013-09-30 08:01:00,
2013-09-30 03:06:00,57.0,55.9,29.97,NNE,22,0.0,0.0,96,0.00,,,0.00,WUHU21623XXSP,2013-09-30 08:06:00,
2013-09-30 03:11:00,57.0,55.9,29.97,NNE,22,0.0,0.0,96,0.00,,,0.00,WUHU21623XXSP,2013-09-30 08:11:00,
2013-09-30 03:16:00,57.0,55.9,29.97,NNE,22,0.0,0.0,96,0.00,,,0.00,WUHU21623XXSP,2013-09-30 08:16:00,
2013-09-30 13:09:00,86.4,82.8,29.97,SSW,202,0.0,0.0,89,0.00,,,0.00,WUHU21623XXSP,2013-09-30 18:09:00,
2013-09-30 13:14:00,86.9,83.3,29.96,SW,225,0.0,0.0,89,0.00,,,0.00,WUHU21623XXSP,2013-09-30 18:14:00,
2013-09-30 13:19:00,86.9,83.3,29.96,SW,225,0.0,0.0,89,0.00,,,0.00,WUHU21623XXSP,2013-09-30 18:19:00,
2013-09-30 13:47:00,88.0,83.3,29.95,WSW,247,16.6,16.6,86,0.00,,,0.00,WUHU21623XXSP,2013-09-30 18:47:00,
2013-09-30 13:52:00,88.3,83.6,29.95,SSW,202,13.0,16.6,86,0.00,,,0.00,WUHU21623XXSP,2013-09-30 18:52:00,
2013-09-30 13:57:00,88.5,83.8,29.95,South,180,0.9,13.0,86,0.00,,,0.00,WUHU21623XXSP,2013-09-30 18:57:00,
2013-09-30 14:02:00,88.9,83.8,29.94,South,180,13.9,16.1,85,0.00,,,0.00,WUHU21623XXSP,2013-09-30 19:02:00,
2013-09-30 14:07:00,89.4,84.7,29.94,West,270,18.3,18.3,86,0.00,,,0.00,WUHU21623XXSP,2013-09-30 19:07:00,
2013-09-30 14:12:00,89.2,83.8,29.94,SSE,157,12.5,18.6,84,0.00,,,0.00,WUHU21623XXSP,2013-09-30 19:12:00,
2013-09-30 14:17:00,89.2,84.1,29.94,SSW,202,3.4,18.6,85,0.00,,,0.00,WUHU21623XXSP,2013-09-30 19:17:00,
2013-09-30 14:22:00,89.2,83.8,29.93,South,180,19.0,19.0,84,0.00,,,0.00,WUHU21623XXSP,2013-09-30 19:22:00,
2013-09-30 14:27:00,88.9,83.8,29.93,WSW,247,19.9,19.9,85,0.00,,,0.00,WUHU21623XXSP,2013-09-30 19:27:00,
2013-09-30 14:32:00,89.4,83.5,29.93,WSW,247,19.7,19.9,83,0.00,,,0.00,WUHU21623XXSP,2013-09-30 19:32:00,
2013-09-30 14:37:00,89.2,83.4,29.93,South,180,13.2,19.7,83,0.00,,,0.00,WUHU21623XXSP,2013-09-30 19:37:00,
2013-09-30 14:42:00,88.3,83.3,29.92,South,180,19.2,19.2,85,0.00,,,0.00,WUHU21623XXSP,2013-09-30 19:42:00,
2013-09-30 14:47:00,88.5,83.4,29.93,South,180,13.9,19.2,85,0.00,,,0.00,WUHU21623XXSP,2013-09-30 19:47:00,
2013-09-30 14:52:00,88.9,83.4,29.92,SSE,157,0.0,14.1,84,0.00,,,0.00,WUHU21623XXSP,2013-09-30 19:52:00,
2013-09-30 14:57:00,89.4,83.9,29.93,South,180,0.0,19.0,84,0.00,,,0.00,WUHU21623XXSP,2013-09-30 19:57:00,
2013-09-30 15:02:00,88.3,84.3,29.92,South,180,11.9,19.0,85,0.00,,,0.00,WUHU21623XXSP,2013-09-30 20:02:00,
2013-09-30 15:07:00,88.2,83.5,29.92,South,180,14.3,14.3,86,0.00,,,0.00,WUHU21623XXSP,2013-09-30 20:07:00,
2013-09-30 15:12:00,89.2,83.8,29.92,South,180,0.0,14.3,84,0.00,,,0.00,WUHU21623XXSP,2013-09-30 20:12:00,
2013-09-30 15:17:00,89.2,84.1,29.93,South,180,12.8,13.0,85,0.00,,,0.00,WUHU21623XXSP,2013-09-30 20:17:00,
2013-09-30 15:22:00,88.5,83.1,29.92,SSW,202,0.0,13.0,84,0.00,,,0.00,WUHU21623XXSP,2013-09-30 20:22:00,
2013-09-30 15:27:00,87.6,82.9,29.92,SSW,202,0.0,12.5,86,0.00,,,0.00,WUHU21623XXSP,2013-09-30 20:27:00,
2013-09-30 15:32:00,86.5,82.6,29.92,SSW,202,0.0,12.5,88,0.00,,,0.00,WUHU21623XXSP,2013-09-30 20:32:00,
2013-09-30 15:37:00,87.1,82.8,29.92,SW,225,0.0,0.0,87,0.00,,,0.00,WUHU21623XXSP,2013-09-30 20:37:00,
2013-09-30 15:42:00,87.1,82.6,29.92,WSW,247,0.0,10.7,87,0.00,,,0.00,WUHU21623XXSP,2013-09-30 20:42:00,
2013-09-30 15:47:00,87.1,82.8,29.92,WSW,247,9.4,10.7,87,0.00,,,0.00,WUHU21623XXSP,2013-09-30 20:47:00,
2013-09-30 15:52:00,85.8,81.1,29.92,South,180,0.0,9.4,86,0.00,,,0.00,WUHU21623XXSP,2013-09-30 20:52:00,
2013-09-30 15:57:00,83.5,80.1,29.92,WSW,247,0.0,0.0,88,0.00,,,0.00,WUHU21623XXSP,2013-09-30 20:57:00,
2013-09-30 16:02:00,82.0,79.5,29.92,South,180,0.0,0.0,89,0.00,,,0.00,WUHU21623XXSP,2013-09-30 21:02:00,
2013-09-30 16:07:00,81.1,78.3,29.92,SSW,202,0.0,0.0,90,0.00,,,0.00,WUHU21623XXSP,2013-09-30 21:07:00,
2013-09-30 16:12:00,81.5,78.1,29.92,SSE,157,0.0,0.0,89,0.00,,,0.00,WUHU21623XXSP,2013-09-30 21:12:00,
2013-09-30 16:17:00,82.6,79.0,29.93,SSW,202,0.0,0.0,89,0.00,,,0.00,WUHU21623XXSP,2013-09-30 21:17:00,
2013-09-30 16:22:00,82.9,79.3,29.93,SSW,202,0.0,0.0,89,0.00,,,0.00,WUHU21623XXSP,2013-09-30 21:22:00,
2013-09-30 16:27:00,82.8,79.2,29.92,South,180,0.0,0.0,89,0.00,,,0.00,WUHU21623XXSP,2013-09-30 21:27:00,
2013-09-30 16:32:00,83.7,79.5,29.92,WSW,247,0.0,0.0,89,0.00,,,0.00,WUHU21623XXSP,2013-09-30 21:32:00,
2013-09-30 16:37:00,84.6,80.6,29.92,WSW,247,13.0,13.0,88,0.00,,,0.00,WUHU21623XXSP,2013-09-30 21:37:00,
2013-09-30 16:42:00,85.6,81.0,29.92,WSW,247,0.0,13.0,86,0.00,,,0.00,WUHU21623XXSP,2013-09-30 21:42:00,
2013-09-30 16:47:00,84.9,80.4,29.92,WSW,247,0.0,13.0,88,0.00,,,0.00,WUHU21623XXSP,2013-09-30 21:47:00,
2013-09-30 16:52:00,84.9,81.0,29.92,WSW,247,0.0,0.0,88,0.00,,,0.00,WUHU21623XXSP,2013-09-30 21:52:00,
2013-09-30 16:57:00,84.0,80.1,29.92,SSE,157,0.0,14.5,88,0.00,,,0.00,WUHU21623XXSP,2013-09-30 21:57:00,
2013-09-30 17:02:00,82.8,79.9,29.92,WSW,247,0.0,14.5,90,0.00,,,0.00,WUHU21623XXSP,2013-09-30 22:02:00,
2013-09-30 17:07:00,81.5,78.3,29.92,SSE,157,0.0,0.0,90,0.00,,,0.00,WUHU21623XXSP,2013-09-30 22:07:00,
2013-09-30 17:12:00,80.4,77.9,29.93,SSE,157,0.0,0.0,91,0.00,,,0.00,WUHU21623XXSP,2013-09-30 22:12:00,
2013-09-30 17:17:00,79.9,77.3,29.92,SSW,202,0.0,0.0,90,0.00,,,0.00,WUHU21623XXSP,2013-09-30 22:17:00,
2013-09-30 17:22:00,79.5,77.0,29.93,SW,225,0.0,0.0,92,0.00,,,0.00,WUHU21623XXSP,2013-09-30 22:22:00,
2013-09-30 17:27:00,79.2,76.7,29.93,SSE,157,0.0,0.0,92,0.00,,,0.00,WUHU21623XXSP,2013-09-30 22:27:00,
2013-09-30 17:32:00,78.8,76.4,29.93,SSW,202,0.0,0.0,92,0.00,,,0.00,WUHU21623XXSP,2013-09-30 22:32:00,
2013-09-30 17:37:00,78.4,76.2,29.92,SSW,202,0.0,0.0,92,0.00,,,0.00,WUHU21623XXSP,2013-09-30 22:37:00,
2013-09-30 17:42:00,77.7,75.0,29.92,SSE,157,0.0,0.0,91,0.00,,,0.00,WUHU21623XXSP,2013-09-30 22:42:00,
2013-09-30 17:47:00,77.4,75.1,29.92,SSE,157,0.0,0.0,92,0.00,,,0.00,WUHU21623XXSP,2013-09-30 22:47:00,
2013-09-30 17:52:00,76.8,74.4,29.93,SSE,157,0.0,0.0,92,0.00,,,0.00,WUHU21623XXSP,2013-09-30 22:52:00,
2013-09-30 17:58:00,76.3,74.5,29.92,SSE,157,0.0,0.0,93,0.00,,,0.00,WUHU21623XXSP,2013-09-30 22:58:00,
2013-09-30 18:03:00,76.1,74.0,29.92,South,180,0.0,0.0,93,0.00,,,0.00,WUHU21623XXSP,2013-09-30 23:03:00,
2013-09-30 18:08:00,75.9,73.8,29.92,SSW,202,3.6,3.6,93,0.00,,,0.00,WUHU21623XXSP,2013-09-30 23:08:00,
2013-09-30 18:13:00,75.6,73.4,29.92,South,180,0.0,3.6,93,0.00,,,0.00,WUHU21623XXSP,2013-09-30 23:13:00,
2013-09-30 18:18:00,75.4,73.2,29.92,South,180,0.0,3.6,93,0.00,,,0.00,WUHU21623XXSP,2013-09-30 23:18:00,
2013-09-30 18:23:00,75.0,72.9,29.92,SSW,202,0.0,0.0,93,0.00,,,0.00,WUHU21623XXSP,2013-09-30 23:23:00,
2013-09-30 18:28:00,74.8,72.7,29.92,SSW,202,0.0,0.0,93,0.00,,,0.00,WUHU21623XXSP,2013-09-30 23:28:00,
2013-09-30 18:33:00,74.3,72.2,29.92,SSW,202,0.0,0.0,93,0.00,,,0.00,WUHU21623XXSP,2013-09-30 23:33:00,
2013-09-30 18:38:00,74.1,72.2,29.92,SSW,202,0.0,0.0,93,0.00,,,0.00,WUHU21623XXSP,2013-09-30 23:38:00,
2013-09-30 18:43:00,73.9,72.1,29.93,SSW,202,0.0,0.0,94,0.00,,,0.00,WUHU21623XXSP,2013-09-30 23:43:00,
2013-09-30 18:48:00,73.8,71.9,29.93,SSW,202,0.0,0.0,94,0.00,,,0.00,WUHU21623XXSP,2013-09-30 23:48:00,
2013-09-30 18:53:00,73.6,71.7,29.93,SSW,202,0.0,0.0,94,0.00,,,0.00,WUHU21623XXSP,2013-09-30 23:53:00,
2013-09-30 18:58:00,73.2,71.4,29.92,SSW,202,0.0,0.0,94,0.00,,,0.00,WUHU21623XXSP,2013-09-30 23:58:00,
2013-09-30 19:03:00,72.9,71.2,29.92,SSW,202,0.0,0.0,94,0.00,,,0.00,WUHU21623XXSP,2013-10-01 00:03:00,
2013-09-30 19:08:00,72.5,70.7,29.92,SSW,202,0.0,0.0,94,0.00,,,0.00,WUHU21623XXSP,2013-10-01 00:08:00,
2013-09-30 19:13:00,72.1,70.3,29.93,SSW,202,0.0,0.0,94,0.00,,,0.00,WUHU21623XXSP,2013-10-01 00:13:00,
2013-09-30 19:18:00,71.8,70.1,29.93,SSW,202,0.0,0.0,94,0.00,,,0.00,WUHU21623XXSP,2013-10-01 00:18:00,
2013-09-30 19:23:00,71.4,69.9,29.93,SSW,202,0.0,0.0,95,0.00,,,0.00,WUHU21623XXSP,2013-10-01 00:23:00,
2013-09-30 19:28:00,71.2,69.7,29.93,SSW,202,0.0,0.0,95,0.00,,,0.00,WUHU21623XXSP,2013-10-01 00:28:00,
2013-09-30 19:33:00,70.9,69.3,29.94,SSW,202,0.0,0.0,95,0.00,,,0.00,WUHU21623XXSP,2013-10-01 00:33:00,
2013-09-30 19:38:00,70.5,69.0,29.94,SSW,202,0.0,0.0,95,0.00,,,0.00,WUHU21623XXSP,2013-10-01 00:38:00,
2013-09-30 19:43:00,70.3,68.8,29.94,SSW,202,0.0,0.0,95,0.00,,,0.00,WUHU21623XXSP,2013-10-01 00:43:00,
2013-09-30 19:48:00,70.0,68.5,29.93,SSW,202,0.0,0.0,95,0.00,,,0.00,WUHU21623XXSP,2013-10-01 00:48:00,
2013-09-30 19:53:00,69.8,68.3,29.94,SSW,202,0.0,0.0,95,0.00,,,0.00,WUHU21623XXSP,2013-10-01 00:53:00,
2013-09-30 19:58:00,69.6,68.1,29.93,SSW,202,0.0,0.0,95,0.00,,,0.00,WUHU21623XXSP,2013-10-01 00:58:00,
2013-09-30 20:03:00,69.4,67.9,29.94,SSW,202,0.0,0.0,95,0.00,,,0.00,WUHU21623XXSP,2013-10-01 01:03:00,
2013-09-30 20:08:00,69.3,67.7,29.94,SSW,202,0.0,0.0,95,0.00,,,0.00,WUHU21623XXSP,2013-10-01 01:08:00,
2013-09-30 20:13:00,69.1,67.6,29.94,SSW,202,0.0,0.0,95,0.00,,,0.00,WUHU21623XXSP,2013-10-01 01:13:00,
2013-09-30 20:18:00,68.9,67.4,29.95,SSW,202,0.0,0.0,95,0.00,,,0.00,WUHU21623XXSP,2013-10-01 01:18:00,
2013-09-30 20:23:00,68.7,67.2,29.95,SSW,202,0.0,0.0,95,0.00,,,0.00,WUHU21623XXSP,2013-10-01 01:23:00,
2013-09-30 20:28:00,68.7,67.2,29.95,SSW,202,0.0,0.0,95,0.00,,,0.00,WUHU21623XXSP,2013-10-01 01:28:00,
2013-09-30 20:33:00,68.7,67.2,29.95,SSW,202,0.0,0.0,95,0.00,,,0.00,WUHU21623XXSP,2013-10-01 01:33:00,
2013-09-30 20:38:00,68.5,67.2,29.94,SSW,202,0.0,0.0,95,0.00,,,0.00,WUHU21623XXSP,2013-10-01 01:38:00,
2013-09-30 20:43:00,68.4,66.8,29.95,SSW,202,0.0,0.0,95,0.00,,,0.00,WUHU21623XXSP,2013-10-01 01:43:00,
2013-09-30 20:48:00,68.4,66.8,29.95,SSW,202,0.0,0.0,95,0.00,,,0.00,WUHU21623XXSP,2013-10-01 01:48:00,
2013-09-30 20:53:00,68.4,66.8,29.95,SSW,202,0.0,0.0,95,0.00,,,0.00,WUHU21623XXSP,2013-10-01 01:53:00,
2013-09-30 20:58:00,68.2,66.7,29.95,SSW,202,0.0,0.0,95,0.00,,,0.00,WUHU21623XXSP,2013-10-01 01:58:00,
2013-09-30 21:03:00,68.0,66.5,29.95,SSW,202,0.0,0.0,95,0.00,,,0.00,WUHU21623XXSP,2013-10-01 02:03:00,
2013-09-30 21:08:00,67.8,66.3,29.95,SSW,202,0.0,0.0,95,0.00,,,0.00,WUHU21623XXSP,2013-10-01 02:08:00,
2013-09-30 21:13:00,67.8,66.3,29.95,SSW,202,0.0,0.0,95,0.00,,,0.00,WUHU21623XXSP,2013-10-01 02:13:00,
2013-09-30 21:18:00,67.6,66.1,29.95,SSW,202,0.0,0.0,95,0.00,,,0.00,WUHU21623XXSP,2013-10-01 02:18:00,
2013-09-30 21:23:00,67.3,65.8,29.96,SSW,202,0.0,0.0,95,0.00,,,0.00,WUHU21623XXSP,2013-10-01 02:23:00,
2013-09-30 21:28:00,67.3,65.8,29.96,SSW,202,0.0,0.0,95,0.00,,,0.00,WUHU21623XXSP,2013-10-01 02:28:00,
2013-09-30 21:33:00,67.1,65.6,29.95,SSW,202,0.0,0.0,95,0.00,,,0.00,WUHU21623XXSP,2013-10-01 02:33:00,
2013-09-30 21:38:00,66.9,65.4,29.96,SSW,202,0.0,0.0,95,0.00,,,0.00,WUHU21623XXSP,2013-10-01 02:38:00,
2013-09-30 21:43:00,67.1,65.6,29.96,SSW,202,0.0,0.0,95,0.00,,,0.00,WUHU21623XXSP,2013-10-01 02:43:00,
2013-09-30 21:48:00,67.1,65.6,29.96,SSW,202,0.0,0.0,95,0.00,,,0.00,WUHU21623XXSP,2013-10-01 02:48:00,
2013-09-30 21:53:00,67.1,65.6,29.96,SSW,202,0.0,0.0,95,0.00,,,0.00,WUHU21623XXSP,2013-10-01 02:53:00,
2013-09-30 21:58:00,67.1,65.9,29.96,SSW,202,0.0,0.0,96,0.00,,,0.00,WUHU21623XXSP,2013-10-01 02:58:00,
2013-09-30 22:03:00,67.3,65.8,29.96,SSW,202,0.0,0.0,95,0.00,,,0.00,WUHU21623XXSP,2013-10-01 03:03:00,
2013-09-30 22:08:00,67.5,65.9,29.96,SSW,202,0.0,0.0,95,0.00,,,0.00,WUHU21623XXSP,2013-10-01 03:08:00,
2013-09-30 22:13:00,67.6,66.1,29.96,South,180,0.0,0.0,95,0.00,,,0.00,WUHU21623XXSP,2013-10-01 03:13:00,
2013-09-30 22:18:00,67.6,66.1,29.95,South,180,0.0,0.0,95,0.00,,,0.00,WUHU21623XXSP,2013-10-01 03:18:00,
2013-09-30 22:23:00,67.6,66.4,29.95,South,180,0.0,0.0,96,0.00,,,0.00,WUHU21623XXSP,2013-10-01 03:23:00,
2013-09-30 22:28:00,67.6,66.4,29.96,SSW,202,0.0,0.0,96,0.00,,,0.00,WUHU21623XXSP,2013-10-01 03:28:00,
2013-09-30 22:33:00,67.6,66.4,29.96,SSW,202,0.0,0.0,96,0.00,,,0.00,WUHU21623XXSP,2013-10-01 03:33:00,
2013-09-30 22:38:00,67.6,66.4,29.95,South,180,0.0,0.0,96,0.00,,,0.00,WUHU21623XXSP,2013-10-01 03:38:00,
2013-09-30 22:43:00,67.6,66.4,29.96,South,180,0.0,0.0,96,0.00,,,0.00,WUHU21623XXSP,2013-10-01 03:43:00,
2013-09-30 22:48:00,67.6,66.4,29.96,South,180,0.0,0.0,96,0.00,,,0.00,WUHU21623XXSP,2013-10-01 03:48:00,
2013-09-30 22:53:00,67.6,66.4,29.96,South,180,0.0,0.0,96,0.00,,,0.00,WUHU21623XXSP,2013-10-01 03:53:00,